createdAt,value
2022-08-05T00:00:23.739Z,5.53
2022-08-05T00:02:58.777Z,5.50
2022-08-05T00:06:03.069Z,6.00
2022-08-05T00:08:33.036Z,5.75
2022-08-05T00:11:05.047Z,5.47
2022-08-05T00:13:53.674Z,5.45
2022-08-05T00:16:36.189Z,5.57
2022-08-05T00:19:04.479Z,5.60
2022-08-05T00:21:37.706Z,5.63
2022-08-05T00:24:19.330Z,6.70
2022-08-05T00:26:58.777Z,6.00
2022-08-05T00:29:38.658Z,7.72
2022-08-05T00:32:12.634Z,8.00
2022-08-05T00:35:03.361Z,5.65
2022-08-05T00:37:35.901Z,6.25
2022-08-05T00:40:29.036Z,7.63
2022-08-05T00:42:58.168Z,8.32
2022-08-05T00:45:37.971Z,5.50
2022-08-05T00:48:16.738Z,5.97
2022-08-05T00:50:52.678Z,6.53
2022-08-05T00:53:45.396Z,6.13
2022-08-05T00:56:23.097Z,8.35
2022-08-05T00:58:56.682Z,9.23
2022-08-05T01:01:42.073Z,6.13
2022-08-05T01:04:20.084Z,6.80
2022-08-05T01:06:53.253Z,9.98
2022-08-05T01:09:30.391Z,8.88
2022-08-05T01:12:18.703Z,6.30
2022-08-05T01:14:48.590Z,6.93
2022-08-05T01:17:31.690Z,6.18
2022-08-05T01:20:29.880Z,7.78
2022-08-05T01:23:34.930Z,6.43
2022-08-05T01:26:26.218Z,6.10
2022-08-05T01:29:13.959Z,9.00
2022-08-05T01:31:56.747Z,6.28
2022-08-05T01:35:10.682Z,7.47
2022-08-05T01:37:54.672Z,6.75
2022-08-05T01:40:30.719Z,9.30
2022-08-05T01:43:00.674Z,6.68
2022-08-05T01:45:42.881Z,6.03
2022-08-05T01:48:10.768Z,6.15
2022-08-05T01:50:50.967Z,6.50
2022-08-05T01:53:54.794Z,6.78
2022-08-05T01:58:12.460Z,6.18
2022-08-05T01:59:13.669Z,6.22
2022-08-05T02:01:48.818Z,5.95
2022-08-05T02:04:18.416Z,6.18
2022-08-05T02:06:45.254Z,7.18
2022-08-05T02:09:18.788Z,5.43
2022-08-05T02:12:05.682Z,7.18
2022-08-05T02:14:58.297Z,6.60
2022-08-05T02:18:33.258Z,7.03
2022-08-05T02:20:33.584Z,6.82
2022-08-05T02:23:17.738Z,6.38
2022-08-05T02:25:51.672Z,6.60
2022-08-05T02:28:38.439Z,7.45
2022-08-05T02:33:57.184Z,8.38
2022-08-05T02:36:27.549Z,9.35
2022-08-05T02:39:02.777Z,5.88
2022-08-05T02:41:42.824Z,7.25
2022-08-05T02:44:28.680Z,6.20
2022-08-05T02:47:03.764Z,6.60
2022-08-05T02:49:40.436Z,6.68
2022-08-05T02:52:29.953Z,7.70
2022-08-05T02:55:10.721Z,8.57
2022-08-05T02:58:09.414Z,6.78
2022-08-05T03:00:36.764Z,6.10
2022-08-05T03:03:13.747Z,7.75
2022-08-05T03:06:53.819Z,7.55
2022-08-05T03:08:37.694Z,6.25
2022-08-05T03:11:56.350Z,7.10
2022-08-05T03:14:28.761Z,6.63
2022-08-05T03:16:55.508Z,7.45
2022-08-05T03:19:33.434Z,6.53
2022-08-05T03:22:16.438Z,6.68
2022-08-05T03:24:52.724Z,8.43
2022-08-05T03:27:48.604Z,7.03
2022-08-05T03:30:33.518Z,6.65
2022-08-05T03:33:09.715Z,7.78
2022-08-05T03:35:43.790Z,8.15
2022-08-05T03:38:14.617Z,7.82
2022-08-05T03:40:52.877Z,7.90
2022-08-05T03:44:09.335Z,10.02
2022-08-05T03:46:18.376Z,9.63
2022-08-05T03:48:51.821Z,10.02
2022-08-05T03:52:37.065Z,8.65
2022-08-05T03:55:51.937Z,6.97
2022-08-05T03:57:42.622Z,7.20
2022-08-05T04:00:21.728Z,10.55
2022-08-05T04:02:59.258Z,7.43
2022-08-05T04:05:35.284Z,7.50
2022-08-05T04:08:29.585Z,6.95
2022-08-05T04:11:04.738Z,8.00
2022-08-05T04:13:49.863Z,6.97
2022-08-05T04:16:32.482Z,6.88
2022-08-05T04:19:00.121Z,8.73
2022-08-05T04:22:09.955Z,10.52
2022-08-05T04:24:22.372Z,14.70
2022-08-05T04:26:58.108Z,8.02
2022-08-05T04:29:38.742Z,8.98
2022-08-05T04:32:06.292Z,10.77
2022-08-05T04:34:42.959Z,10.57
2022-08-05T04:37:10.061Z,9.60
2022-08-05T04:39:44.809Z,9.00
2022-08-05T04:42:25.787Z,7.45
2022-08-05T04:44:52.456Z,7.75
2022-08-05T04:47:26.082Z,9.43
2022-08-05T04:50:01.553Z,7.72
2022-08-05T04:52:35.761Z,11.90
2022-08-05T04:55:15.011Z,10.95
2022-08-05T04:57:54.111Z,9.90
2022-08-05T05:00:23.251Z,11.63
2022-08-05T05:02:50.604Z,10.25
2022-08-05T05:05:26.283Z,9.73
2022-08-05T05:08:00.850Z,13.38
2022-08-05T05:10:34.772Z,12.70
2022-08-05T05:13:08.729Z,9.05
2022-08-05T05:15:54.282Z,12.45
2022-08-05T05:18:31.652Z,10.45
2022-08-05T05:21:07.768Z,15.70
2022-08-05T05:23:39.206Z,17.73
2022-08-05T05:26:32.814Z,22.67
2022-08-05T05:29:14.317Z,16.70
2022-08-05T05:31:47.960Z,19.35
2022-08-05T05:34:15.628Z,15.15
2022-08-05T05:36:43.294Z,19.17
2022-08-05T05:39:20.889Z,18.85
2022-08-05T05:41:54.847Z,21.33
2022-08-05T05:44:36.498Z,16.38
2022-08-05T05:47:21.270Z,21.65
2022-08-05T05:50:01.626Z,13.90
2022-08-05T05:52:40.586Z,16.08
2022-08-05T05:55:13.414Z,11.32
2022-08-05T05:57:52.705Z,13.60
2022-08-05T06:00:21.121Z,15.15
2022-08-05T06:03:00.731Z,9.10
2022-08-05T06:05:27.799Z,11.68
2022-08-05T06:08:01.985Z,13.52
2022-08-05T06:10:36.442Z,12.68
2022-08-05T06:13:11.776Z,9.75
2022-08-05T06:16:28.285Z,10.52
2022-08-05T06:18:39.444Z,14.02
2022-08-05T06:21:08.030Z,8.57
2022-08-05T06:23:51.732Z,8.40
2022-08-05T06:26:25.110Z,11.05
2022-08-05T06:28:58.732Z,10.38
2022-08-05T06:31:36.788Z,7.45
2022-08-05T06:34:10.778Z,8.93
2022-08-05T06:36:55.314Z,7.43
2022-08-05T06:39:30.903Z,8.95
2022-08-05T06:42:01.912Z,6.50
2022-08-05T06:44:37.787Z,9.45
2022-08-05T06:47:04.550Z,10.07
2022-08-05T06:49:59.897Z,6.82
2022-08-05T06:52:36.774Z,5.72
2022-08-05T06:55:06.333Z,9.82
2022-08-05T06:57:58.220Z,9.25
2022-08-05T07:00:32.746Z,8.93
2022-08-05T07:03:07.533Z,5.88
2022-08-05T07:05:37.873Z,10.40
2022-08-05T07:08:14.824Z,6.05
2022-08-05T07:10:52.758Z,6.93
2022-08-05T07:13:59.352Z,7.85
2022-08-05T07:18:00.012Z,8.80
2022-08-05T07:22:30.384Z,6.15
2022-08-05T07:25:23.908Z,8.18
2022-08-05T07:28:09.598Z,6.47
2022-08-05T07:30:54.766Z,7.47
2022-08-05T07:33:35.243Z,4.97
2022-08-05T07:36:21.550Z,3.35
2022-08-05T07:38:55.128Z,5.80
2022-08-05T07:42:07.807Z,4.38
2022-08-05T07:44:19.098Z,7.00
2022-08-05T07:46:53.857Z,3.90
2022-08-05T07:49:26.836Z,4.28
2022-08-05T07:52:00.811Z,7.55
2022-08-05T07:54:31.082Z,2.85
2022-08-05T07:57:13.758Z,4.15
2022-08-05T07:59:46.794Z,6.72
2022-08-05T08:02:21.746Z,4.75
2022-08-05T08:05:00.742Z,3.45
2022-08-05T08:07:39.452Z,2.55
2022-08-05T08:10:22.922Z,5.13
2022-08-05T08:12:59.820Z,6.22
2022-08-05T08:16:33.698Z,5.63
2022-08-05T08:18:21.657Z,3.72
2022-08-05T08:21:02.364Z,2.83
2022-08-05T08:24:03.315Z,2.88
2022-08-05T08:26:27.109Z,3.30
2022-08-05T08:29:45.466Z,4.07
2022-08-05T08:31:58.794Z,5.68
2022-08-05T08:34:30.545Z,2.65
2022-08-05T08:37:06.743Z,2.83
2022-08-05T08:39:49.420Z,6.93
2022-08-05T08:42:50.408Z,6.13
2022-08-05T08:45:26.644Z,5.45
2022-08-05T08:48:12.805Z,4.88
2022-08-05T08:51:22.447Z,3.67
2022-08-05T08:53:45.355Z,2.08
2022-08-05T08:56:12.157Z,3.00
2022-08-05T08:58:48.757Z,2.85
2022-08-05T09:01:16.980Z,3.38
2022-08-05T09:03:57.530Z,3.90
2022-08-05T09:06:30.835Z,5.20
2022-08-05T09:09:08.763Z,4.38
2022-08-05T09:11:51.301Z,3.60
2022-08-05T09:14:56.769Z,1.73
2022-08-05T09:17:40.718Z,2.65
2022-08-05T09:20:08.418Z,3.55
2022-08-05T09:23:21.636Z,1.63
2022-08-05T09:26:00.172Z,3.15
2022-08-05T09:28:36.846Z,3.95
2022-08-05T09:32:42.045Z,2.58
2022-08-05T09:34:10.355Z,2.10
2022-08-05T09:36:59.314Z,3.33
2022-08-05T09:39:44.958Z,3.35
2022-08-05T09:42:28.304Z,4.43
2022-08-05T09:44:57.175Z,5.28
2022-08-05T09:47:55.688Z,4.38
2022-08-05T09:50:43.684Z,7.43
2022-08-05T09:53:25.945Z,4.70
2022-08-05T09:56:13.318Z,4.38
2022-08-05T09:58:41.664Z,3.88
2022-08-05T10:01:22.657Z,5.63
2022-08-05T10:06:54.755Z,3.42
2022-08-05T10:09:45.011Z,2.20
2022-08-05T10:12:31.690Z,5.45
2022-08-05T10:15:27.828Z,3.60
2022-08-05T10:18:17.830Z,4.68
2022-08-05T10:20:48.621Z,4.03
2022-08-05T10:23:55.246Z,4.05
2022-08-05T10:26:17.620Z,3.88
2022-08-05T10:28:57.884Z,3.72
2022-08-05T10:33:01.409Z,2.63
2022-08-05T10:34:17.877Z,4.97
2022-08-05T10:36:52.566Z,9.10
2022-08-05T10:40:04.037Z,5.97
2022-08-05T10:42:34.123Z,5.45
2022-08-05T10:45:15.990Z,22.38
2022-08-05T10:48:29.970Z,18.08
2022-08-05T10:51:22.241Z,17.02
2022-08-05T10:53:58.276Z,11.75
2022-08-05T10:56:42.806Z,13.95
2022-08-05T11:00:01.293Z,12.60
2022-08-05T11:02:38.396Z,11.85
2022-08-05T11:05:10.332Z,9.52
2022-08-05T11:08:22.187Z,11.27
2022-08-05T11:11:01.098Z,9.45
2022-08-05T11:13:55.050Z,11.90
2022-08-05T11:16:47.786Z,10.40
2022-08-05T11:20:10.029Z,10.13
2022-08-05T11:22:58.021Z,7.85
2022-08-05T11:26:04.994Z,14.00
2022-08-05T11:28:38.827Z,10.65
2022-08-05T11:31:13.121Z,8.40
2022-08-05T11:34:08.782Z,7.63
2022-08-05T11:36:53.057Z,8.10
2022-08-05T11:39:55.276Z,7.03
2022-08-05T11:42:27.923Z,6.78
2022-08-05T11:45:23.260Z,6.97
2022-08-05T11:47:57.755Z,6.75
2022-08-05T11:50:32.767Z,9.55
2022-08-05T11:53:04.945Z,7.25
2022-08-05T11:55:42.826Z,3.67
2022-08-05T11:58:17.354Z,4.72
2022-08-05T12:00:46.990Z,4.57
2022-08-05T12:03:32.028Z,6.43
2022-08-05T12:06:01.757Z,7.18
2022-08-05T12:08:28.877Z,6.50
2022-08-05T12:11:06.809Z,4.38
2022-08-05T12:13:48.999Z,3.70
2022-08-05T12:16:27.255Z,3.60
2022-08-05T12:18:55.885Z,3.63
2022-08-05T12:21:39.225Z,3.03
2022-08-05T12:24:14.058Z,4.25
2022-08-05T12:26:59.852Z,3.47
2022-08-05T12:29:56.795Z,6.43
2022-08-05T12:32:24.047Z,6.60
2022-08-05T12:34:58.806Z,5.43
2022-08-05T12:37:37.973Z,4.78
2022-08-05T12:40:10.954Z,4.00
2022-08-05T12:42:45.795Z,5.38
2022-08-05T12:45:22.120Z,2.90
2022-08-05T12:48:27.814Z,3.45
2022-08-05T12:52:10.299Z,5.90
2022-08-05T12:54:14.733Z,4.07
2022-08-05T12:56:52.576Z,3.65
2022-08-05T13:00:08.997Z,2.73
2022-08-05T13:02:32.853Z,2.67
2022-08-05T13:04:59.588Z,2.38
2022-08-05T13:07:59.792Z,2.45
2022-08-05T13:10:26.817Z,3.50
2022-08-05T13:13:03.853Z,3.40
2022-08-05T13:15:41.387Z,3.33
2022-08-05T13:18:24.855Z,7.07
2022-08-05T13:20:51.622Z,2.65
2022-08-05T13:23:22.410Z,3.00
2022-08-05T13:28:46.767Z,2.30
2022-08-05T13:31:19.862Z,2.35
2022-08-05T13:34:21.910Z,4.90
2022-08-05T13:37:00.178Z,3.38
2022-08-05T13:40:14.280Z,2.80
2022-08-05T13:42:29.852Z,3.60
2022-08-05T13:45:03.989Z,3.05
2022-08-05T13:47:35.588Z,2.45
2022-08-05T13:50:27.847Z,3.70
2022-08-05T13:52:55.233Z,2.83
2022-08-05T13:55:41.549Z,2.55
2022-08-05T13:58:15.236Z,2.63
2022-08-05T14:01:03.854Z,5.15
2022-08-05T14:03:30.821Z,2.78
2022-08-05T14:06:26.489Z,3.03
2022-08-05T14:08:52.848Z,4.88
2022-08-05T14:11:21.010Z,4.40
2022-08-05T14:13:56.923Z,3.97
2022-08-05T14:16:30.840Z,3.78
2022-08-05T14:18:57.543Z,3.42
2022-08-05T14:22:08.197Z,3.97
2022-08-05T14:24:24.609Z,5.13
2022-08-05T14:27:17.691Z,4.22
2022-08-05T14:29:52.061Z,3.95
2022-08-05T14:32:26.926Z,6.45
2022-08-05T14:35:00.797Z,2.97
2022-08-05T14:37:45.523Z,4.85
2022-08-05T14:40:20.821Z,4.10
2022-08-05T14:42:57.873Z,4.93
2022-08-05T14:45:24.925Z,4.25
2022-08-05T14:48:05.525Z,4.32
2022-08-05T14:50:36.029Z,2.72
2022-08-05T14:53:12.866Z,4.22
2022-08-05T14:55:40.486Z,4.88
2022-08-05T14:58:11.738Z,3.60
2022-08-05T15:00:58.577Z,4.63
2022-08-05T15:03:39.264Z,5.50
2022-08-05T15:06:15.309Z,3.95
2022-08-05T15:08:57.734Z,5.35
2022-08-05T15:11:50.948Z,3.90
2022-08-05T15:14:35.937Z,3.20
2022-08-05T15:17:09.859Z,4.55
2022-08-05T15:20:01.856Z,6.40
2022-08-05T15:22:28.837Z,3.03
2022-08-05T15:24:58.908Z,10.63
2022-08-05T15:27:32.218Z,3.05
2022-08-05T15:30:11.033Z,4.47
2022-08-05T15:32:47.882Z,4.95
2022-08-05T15:35:15.076Z,4.38
2022-08-05T15:38:08.650Z,4.05
2022-08-05T15:41:00.017Z,4.05
2022-08-05T15:43:28.985Z,4.43
2022-08-05T15:46:12.204Z,4.43
2022-08-05T15:48:54.369Z,3.75
2022-08-05T15:52:10.215Z,3.92
2022-08-05T15:54:35.058Z,3.60
2022-08-05T15:57:10.865Z,4.78
2022-08-05T15:59:38.109Z,3.17
2022-08-05T16:02:09.808Z,3.35
2022-08-05T16:04:48.797Z,4.13
2022-08-05T16:07:15.534Z,3.75
2022-08-05T16:09:48.874Z,4.57
2022-08-05T16:12:16.316Z,4.00
2022-08-05T16:14:49.874Z,4.43
2022-08-05T16:17:16.531Z,4.30
2022-08-05T16:20:04.871Z,5.40
2022-08-05T16:22:36.926Z,4.80
2022-08-05T16:25:11.851Z,6.80
2022-08-05T16:28:00.850Z,5.88
2022-08-05T16:30:41.616Z,5.47
2022-08-05T16:33:15.429Z,6.70
2022-08-05T16:35:52.801Z,4.93
2022-08-05T16:38:25.127Z,5.72
2022-08-05T16:42:12.469Z,4.38
2022-08-05T16:43:56.413Z,5.75
2022-08-05T16:46:29.867Z,4.65
2022-08-05T16:48:59.085Z,5.25
2022-08-05T16:51:30.726Z,4.43
2022-08-05T16:54:21.835Z,5.13
2022-08-05T16:56:52.696Z,6.68
2022-08-05T16:59:27.700Z,5.72
2022-08-05T17:01:57.380Z,5.60
2022-08-05T17:04:32.925Z,5.43
2022-08-05T17:07:03.557Z,4.20
2022-08-05T17:09:58.016Z,7.13
2022-08-05T17:12:51.834Z,5.35
2022-08-05T17:15:19.587Z,4.18
2022-08-05T17:17:55.210Z,4.32
2022-08-05T17:20:22.201Z,6.55
2022-08-05T17:22:58.715Z,5.95
2022-08-05T17:25:40.381Z,5.40
2022-08-05T17:28:15.516Z,23.05
2022-08-05T17:31:08.388Z,7.22
2022-08-05T17:33:55.892Z,5.13
2022-08-05T17:36:32.735Z,4.85
2022-08-05T17:39:23.929Z,5.75
2022-08-05T17:42:20.011Z,5.30
2022-08-05T17:44:50.537Z,8.07
2022-08-05T17:47:22.546Z,8.38
2022-08-05T17:50:10.444Z,8.73
2022-08-05T17:52:52.835Z,6.30
2022-08-05T17:55:37.438Z,6.70
2022-08-05T17:58:09.382Z,6.32
2022-08-05T18:00:47.842Z,4.57
2022-08-05T18:06:15.208Z,4.05
2022-08-05T18:08:52.402Z,6.35
2022-08-05T18:11:24.084Z,7.40
2022-08-05T18:14:03.535Z,7.72
2022-08-05T18:16:31.349Z,3.97
2022-08-05T18:18:58.070Z,4.60
2022-08-05T18:22:09.470Z,5.43
2022-08-05T18:24:24.005Z,3.70
2022-08-05T18:26:59.866Z,2.97
2022-08-05T18:29:39.991Z,1.67
2022-08-05T18:32:21.887Z,1.95
2022-08-05T18:34:55.248Z,2.65
2022-08-05T18:37:34.291Z,3.90
2022-08-05T18:41:50.840Z,1.83
2022-08-05T18:43:00.897Z,1.38
2022-08-05T18:45:41.564Z,1.25
2022-08-05T18:48:30.093Z,1.30
2022-08-05T18:52:04.098Z,2.50
2022-08-05T18:54:10.813Z,1.10
2022-08-05T18:56:51.012Z,1.00
2022-08-05T18:59:42.751Z,1.40
2022-08-05T19:02:27.761Z,2.17
2022-08-05T19:05:02.273Z,1.58
2022-08-05T19:07:50.123Z,1.98
2022-08-05T19:10:26.805Z,1.63
2022-08-05T19:13:02.915Z,1.30
2022-08-05T19:16:00.144Z,2.83
2022-08-05T19:18:23.035Z,1.95
2022-08-05T19:20:52.421Z,1.33
2022-08-05T19:24:06.677Z,1.90
2022-08-05T19:26:25.830Z,1.25
2022-08-05T19:28:58.871Z,1.20
2022-08-05T19:31:33.735Z,1.75
2022-08-05T19:34:18.827Z,1.10
2022-08-05T19:36:51.849Z,0.93
2022-08-05T19:39:18.759Z,1.70
2022-08-05T19:42:06.077Z,1.98
2022-08-05T19:44:45.016Z,0.70
2022-08-05T19:47:19.894Z,1.40
2022-08-05T19:49:57.398Z,1.15
2022-08-05T19:52:40.434Z,0.90
2022-08-05T19:56:15.133Z,0.80
2022-08-05T19:58:14.476Z,1.75
2022-08-05T20:00:54.866Z,1.55
2022-08-05T20:03:38.795Z,1.17
2022-08-05T20:06:11.837Z,2.15
2022-08-05T20:08:51.955Z,1.10
2022-08-05T20:11:21.436Z,0.88
2022-08-05T20:13:58.241Z,0.98
2022-08-05T20:16:32.904Z,1.98
2022-08-05T20:18:59.709Z,1.40
2022-08-05T20:21:28.691Z,1.45
2022-08-05T20:24:04.825Z,2.40
2022-08-05T20:26:32.253Z,1.77
2022-08-05T20:29:27.626Z,2.10
2022-08-05T20:32:01.453Z,2.97
2022-08-05T20:38:06.208Z,1.27
2022-08-05T20:40:19.892Z,3.13
2022-08-05T20:42:47.159Z,4.05
2022-08-05T20:45:13.798Z,1.90
2022-08-05T20:47:47.840Z,2.40
2022-08-05T20:50:24.901Z,2.63
2022-08-05T20:53:00.904Z,1.33
2022-08-05T20:55:56.341Z,2.05
2022-08-05T20:58:27.902Z,3.13
2022-08-05T21:00:56.939Z,3.08
2022-08-05T21:03:29.872Z,6.05
2022-08-05T21:06:01.722Z,1.92
2022-08-05T21:08:42.410Z,2.65
2022-08-05T21:11:12.832Z,1.50
2022-08-05T21:13:56.313Z,4.40
2022-08-05T21:16:29.407Z,2.03
2022-08-05T21:19:06.845Z,1.15
2022-08-05T21:21:44.036Z,3.75
2022-08-05T21:24:23.900Z,1.30
2022-08-05T21:26:58.393Z,3.45
2022-08-05T21:29:33.848Z,2.50
2022-08-05T21:32:17.179Z,1.83
2022-08-05T21:34:55.924Z,1.97
2022-08-05T21:37:41.366Z,1.48
2022-08-05T21:40:16.623Z,1.83
2022-08-05T21:42:51.898Z,1.23
2022-08-05T21:45:26.488Z,3.40
2022-08-05T21:48:13.599Z,3.97
2022-08-05T21:50:53.044Z,1.10
2022-08-05T21:53:21.513Z,1.70
2022-08-05T21:56:16.157Z,1.77
2022-08-05T21:58:57.065Z,1.95
2022-08-05T22:01:35.517Z,2.25
2022-08-05T22:04:02.294Z,3.10
2022-08-05T22:06:39.514Z,2.88
2022-08-05T22:09:14.636Z,1.27
2022-08-05T22:11:42.601Z,2.95
2022-08-05T22:14:33.108Z,3.10
2022-08-05T22:17:04.866Z,1.50
2022-08-05T22:20:01.522Z,2.88
2022-08-05T22:22:31.984Z,1.75
2022-08-05T22:25:27.805Z,2.28
2022-08-05T22:28:12.076Z,2.25
2022-08-05T22:30:56.805Z,4.90
2022-08-05T22:33:56.726Z,2.45
2022-08-05T22:36:23.795Z,2.15
2022-08-05T22:38:51.866Z,3.63
2022-08-05T22:42:11.016Z,2.28
2022-08-05T22:44:14.585Z,4.38
2022-08-05T22:46:51.901Z,1.90
2022-08-05T22:50:19.514Z,3.40
2022-08-05T22:52:22.905Z,3.67
2022-08-05T22:55:04.300Z,3.50
2022-08-05T22:57:45.273Z,6.03
2022-08-05T23:00:20.811Z,2.75
2022-08-05T23:02:54.929Z,5.07
2022-08-05T23:05:22.696Z,2.17
2022-08-05T23:07:50.676Z,4.32
2022-08-05T23:10:25.892Z,3.00
2022-08-05T23:12:54.679Z,3.22
2022-08-05T23:15:34.822Z,5.43
2022-08-05T23:20:48.889Z,4.25
2022-08-05T23:23:21.874Z,2.67
2022-08-05T23:25:51.047Z,3.50
2022-08-05T23:28:20.519Z,4.85
2022-08-05T23:30:54.922Z,2.97
2022-08-05T23:34:04.853Z,3.70
2022-08-05T23:36:23.496Z,5.60
2022-08-05T23:39:01.948Z,3.00
2022-08-05T23:41:29.300Z,3.78
2022-08-05T23:44:08.656Z,5.05
2022-08-05T23:46:37.323Z,4.47
2022-08-05T23:49:15.871Z,4.88
2022-08-05T23:52:08.954Z,5.82
2022-08-05T23:54:38.319Z,3.03
2022-08-05T23:57:12.907Z,4.40
